sensor_id;sensor_type;location;lat;lon;timestamp;P1;durP1;ratioP1;P2;durP2;ratioP2
23406;SDS011;11876;53.438;18.942;2022-09-03T00:00:14;2.42;;;1.90;;
23406;SDS011;11876;53.438;18.942;2022-09-03T00:05:37;3.42;;;2.40;;
23406;SDS011;11876;53.438;18.942;2022-09-03T00:10:44;5.95;;;4.68;;
23406;SDS011;11876;53.438;18.942;2022-09-03T00:15:52;3.42;;;2.60;;
23406;SDS011;11876;53.438;18.942;2022-09-03T00:21:02;4.15;;;2.28;;
23406;SDS011;11876;53.438;18.942;2022-09-03T00:31:19;3.40;;;2.00;;
23406;SDS011;11876;53.438;18.942;2022-09-03T00:36:33;3.38;;;2.15;;
23406;SDS011;11876;53.438;18.942;2022-09-03T01:20:02;1.95;;;1.83;;
23406;SDS011;11876;53.438;18.942;2022-09-03T01:25:13;2.90;;;1.80;;
23406;SDS011;11876;53.438;18.942;2022-09-03T01:30:22;5.40;;;2.13;;
23406;SDS011;11876;53.438;18.942;2022-09-03T01:46:40;7.65;;;2.65;;
23406;SDS011;11876;53.438;18.942;2022-09-03T01:51:46;2.75;;;1.50;;
23406;SDS011;11876;53.438;18.942;2022-09-03T02:02:30;2.70;;;1.90;;
23406;SDS011;11876;53.438;18.942;2022-09-03T02:07:34;3.42;;;1.90;;
23406;SDS011;11876;53.438;18.942;2022-09-03T02:12:43;2.95;;;2.38;;
23406;SDS011;11876;53.438;18.942;2022-09-03T02:17:48;2.38;;;1.75;;
23406;SDS011;11876;53.438;18.942;2022-09-03T02:22:53;4.82;;;2.05;;
23406;SDS011;11876;53.438;18.942;2022-09-03T02:27:56;3.10;;;2.45;;
23406;SDS011;11876;53.438;18.942;2022-09-03T02:32:59;4.50;;;2.25;;
23406;SDS011;11876;53.438;18.942;2022-09-03T02:38:12;3.88;;;2.22;;
23406;SDS011;11876;53.438;18.942;2022-09-03T02:43:26;3.00;;;1.90;;
23406;SDS011;11876;53.438;18.942;2022-09-03T02:48:33;4.63;;;2.25;;
23406;SDS011;11876;53.438;18.942;2022-09-03T02:53:36;3.25;;;2.20;;
23406;SDS011;11876;53.438;18.942;2022-09-03T02:58:39;9.77;;;2.92;;
23406;SDS011;11876;53.438;18.942;2022-09-03T03:03:42;3.70;;;2.28;;
23406;SDS011;11876;53.438;18.942;2022-09-03T03:08:44;4.75;;;3.10;;
23406;SDS011;11876;53.438;18.942;2022-09-03T03:13:47;3.15;;;2.10;;
23406;SDS011;11876;53.438;18.942;2022-09-03T03:18:49;4.22;;;2.83;;
23406;SDS011;11876;53.438;18.942;2022-09-03T03:23:53;4.05;;;2.53;;
23406;SDS011;11876;53.438;18.942;2022-09-03T03:28:56;4.30;;;2.95;;
23406;SDS011;11876;53.438;18.942;2022-09-03T03:34:01;3.30;;;2.75;;
23406;SDS011;11876;53.438;18.942;2022-09-03T03:39:04;3.38;;;2.72;;
23406;SDS011;11876;53.438;18.942;2022-09-03T03:44:10;3.45;;;2.90;;
23406;SDS011;11876;53.438;18.942;2022-09-03T03:49:13;10.13;;;3.50;;
23406;SDS011;11876;53.438;18.942;2022-09-03T03:54:15;5.20;;;3.17;;
23406;SDS011;11876;53.438;18.942;2022-09-03T03:59:18;5.43;;;2.67;;
23406;SDS011;11876;53.438;18.942;2022-09-03T04:04:21;2.60;;;2.40;;
23406;SDS011;11876;53.438;18.942;2022-09-03T04:09:23;6.15;;;2.95;;
23406;SDS011;11876;53.438;18.942;2022-09-03T04:14:26;3.83;;;2.42;;
23406;SDS011;11876;53.438;18.942;2022-09-03T04:19:28;2.40;;;2.20;;
23406;SDS011;11876;53.438;18.942;2022-09-03T04:24:31;5.93;;;2.20;;
23406;SDS011;11876;53.438;18.942;2022-09-03T04:29:34;3.92;;;2.05;;
23406;SDS011;11876;53.438;18.942;2022-09-03T04:34:36;5.95;;;2.22;;
23406;SDS011;11876;53.438;18.942;2022-09-03T04:39:39;2.58;;;2.25;;
23406;SDS011;11876;53.438;18.942;2022-09-03T04:44:41;4.45;;;2.20;;
23406;SDS011;11876;53.438;18.942;2022-09-03T04:49:44;3.42;;;2.25;;
23406;SDS011;11876;53.438;18.942;2022-09-03T04:54:47;4.32;;;2.78;;
23406;SDS011;11876;53.438;18.942;2022-09-03T04:59:49;25.92;;;4.43;;
23406;SDS011;11876;53.438;18.942;2022-09-03T05:04:52;4.32;;;2.20;;
23406;SDS011;11876;53.438;18.942;2022-09-03T05:09:54;2.20;;;2.00;;
23406;SDS011;11876;53.438;18.942;2022-09-03T05:14:57;12.73;;;2.05;;
23406;SDS011;11876;53.438;18.942;2022-09-03T05:20:03;2.25;;;1.83;;
23406;SDS011;11876;53.438;18.942;2022-09-03T05:25:08;4.70;;;1.90;;
23406;SDS011;11876;53.438;18.942;2022-09-03T05:30:11;3.13;;;1.73;;
23406;SDS011;11876;53.438;18.942;2022-09-03T05:35:14;1.38;;;1.10;;
23406;SDS011;11876;53.438;18.942;2022-09-03T05:40:17;2.55;;;1.20;;
23406;SDS011;11876;53.438;18.942;2022-09-03T05:45:19;8.18;;;1.70;;
23406;SDS011;11876;53.438;18.942;2022-09-03T05:50:23;2.08;;;1.45;;
23406;SDS011;11876;53.438;18.942;2022-09-03T05:55:26;4.38;;;1.48;;
23406;SDS011;11876;53.438;18.942;2022-09-03T06:00:29;2.35;;;0.90;;
23406;SDS011;11876;53.438;18.942;2022-09-03T06:05:31;2.15;;;0.90;;
23406;SDS011;11876;53.438;18.942;2022-09-03T06:10:34;1.88;;;0.80;;
23406;SDS011;11876;53.438;18.942;2022-09-03T06:15:41;1.45;;;0.80;;
23406;SDS011;11876;53.438;18.942;2022-09-03T06:20:52;2.50;;;0.90;;
23406;SDS011;11876;53.438;18.942;2022-09-03T06:26:13;4.38;;;0.80;;
23406;SDS011;11876;53.438;18.942;2022-09-03T06:31:16;1.08;;;0.90;;
23406;SDS011;11876;53.438;18.942;2022-09-03T06:36:20;1.25;;;0.75;;
23406;SDS011;11876;53.438;18.942;2022-09-03T06:41:27;3.35;;;0.80;;
23406;SDS011;11876;53.438;18.942;2022-09-03T06:46:33;9.80;;;1.20;;
23406;SDS011;11876;53.438;18.942;2022-09-03T06:51:39;2.28;;;0.98;;
23406;SDS011;11876;53.438;18.942;2022-09-03T06:56:43;15.63;;;1.30;;
23406;SDS011;11876;53.438;18.942;2022-09-03T07:01:46;3.40;;;0.70;;
23406;SDS011;11876;53.438;18.942;2022-09-03T07:06:49;4.03;;;0.70;;
23406;SDS011;11876;53.438;18.942;2022-09-03T07:11:52;13.65;;;0.82;;
23406;SDS011;11876;53.438;18.942;2022-09-03T07:16:55;4.90;;;0.98;;
23406;SDS011;11876;53.438;18.942;2022-09-03T07:21:57;1.70;;;0.77;;
23406;SDS011;11876;53.438;18.942;2022-09-03T07:27:00;1.63;;;0.65;;
23406;SDS011;11876;53.438;18.942;2022-09-03T07:32:02;1.67;;;0.70;;
23406;SDS011;11876;53.438;18.942;2022-09-03T07:37:05;10.10;;;1.00;;
23406;SDS011;11876;53.438;18.942;2022-09-03T07:42:07;2.67;;;0.45;;
23406;SDS011;11876;53.438;18.942;2022-09-03T07:47:11;0.70;;;0.40;;
23406;SDS011;11876;53.438;18.942;2022-09-03T07:52:20;2.13;;;0.43;;
23406;SDS011;11876;53.438;18.942;2022-09-03T07:57:23;1.67;;;0.80;;
23406;SDS011;11876;53.438;18.942;2022-09-03T08:02:25;7.40;;;1.25;;
23406;SDS011;11876;53.438;18.942;2022-09-03T08:07:28;6.85;;;1.50;;
23406;SDS011;11876;53.438;18.942;2022-09-03T08:12:31;3.20;;;0.57;;
23406;SDS011;11876;53.438;18.942;2022-09-03T08:17:34;0.35;;;0.30;;
23406;SDS011;11876;53.438;18.942;2022-09-03T08:22:36;2.65;;;0.40;;
23406;SDS011;11876;53.438;18.942;2022-09-03T08:27:39;2.75;;;0.75;;
23406;SDS011;11876;53.438;18.942;2022-09-03T08:32:42;1.25;;;0.25;;
23406;SDS011;11876;53.438;18.942;2022-09-03T08:37:44;2.15;;;0.77;;
23406;SDS011;11876;53.438;18.942;2022-09-03T08:42:57;1.52;;;0.40;;
23406;SDS011;11876;53.438;18.942;2022-09-03T08:48:17;5.03;;;0.32;;
23406;SDS011;11876;53.438;18.942;2022-09-03T08:53:33;0.70;;;0.32;;
23406;SDS011;11876;53.438;18.942;2022-09-03T08:58:42;3.45;;;0.50;;
23406;SDS011;11876;53.438;18.942;2022-09-03T09:09:29;0.40;;;0.40;;
23406;SDS011;11876;53.438;18.942;2022-09-03T09:25:30;0.30;;;0.30;;
23406;SDS011;11876;53.438;18.942;2022-09-03T09:30:33;3.40;;;2.55;;
23406;SDS011;11876;53.438;18.942;2022-09-03T09:35:36;1.15;;;0.30;;
23406;SDS011;11876;53.438;18.942;2022-09-03T09:40:43;0.70;;;0.30;;
23406;SDS011;11876;53.438;18.942;2022-09-03T09:45:47;16.70;;;2.28;;
23406;SDS011;11876;53.438;18.942;2022-09-03T09:56:21;0.98;;;0.40;;
23406;SDS011;11876;53.438;18.942;2022-09-03T10:01:27;2.10;;;0.40;;
23406;SDS011;11876;53.438;18.942;2022-09-03T10:06:32;1.95;;;0.43;;
23406;SDS011;11876;53.438;18.942;2022-09-03T10:22:20;1.70;;;0.57;;
23406;SDS011;11876;53.438;18.942;2022-09-03T10:27:23;0.98;;;0.40;;
23406;SDS011;11876;53.438;18.942;2022-09-03T10:37:43;0.73;;;0.43;;
23406;SDS011;11876;53.438;18.942;2022-09-03T10:42:57;0.70;;;0.38;;
23406;SDS011;11876;53.438;18.942;2022-09-03T10:53:46;3.05;;;0.60;;
23406;SDS011;11876;53.438;18.942;2022-09-03T11:05:08;0.63;;;0.63;;
23406;SDS011;11876;53.438;18.942;2022-09-03T11:15:25;0.50;;;0.40;;
23406;SDS011;11876;53.438;18.942;2022-09-03T11:20:30;0.27;;;0.23;;
23406;SDS011;11876;53.438;18.942;2022-09-03T11:25:36;1.15;;;0.40;;
23406;SDS011;11876;53.438;18.942;2022-09-03T11:30:48;0.38;;;0.38;;
23406;SDS011;11876;53.438;18.942;2022-09-03T11:35:58;0.30;;;0.30;;
23406;SDS011;11876;53.438;18.942;2022-09-03T11:56:36;0.55;;;0.40;;
23406;SDS011;11876;53.438;18.942;2022-09-03T12:01:42;1.15;;;0.68;;
23406;SDS011;11876;53.438;18.942;2022-09-03T12:12:37;0.40;;;0.30;;
23406;SDS011;11876;53.438;18.942;2022-09-03T12:17:49;0.60;;;0.32;;
23406;SDS011;11876;53.438;18.942;2022-09-03T12:23:13;4.70;;;0.80;;
23406;SDS011;11876;53.438;18.942;2022-09-03T12:28:53;2.63;;;0.82;;
23406;SDS011;11876;53.438;18.942;2022-09-03T12:33:58;2.83;;;1.02;;
23406;SDS011;11876;53.438;18.942;2022-09-03T12:39:08;3.33;;;0.77;;
23406;SDS011;11876;53.438;18.942;2022-09-03T12:44:13;0.60;;;0.50;;
23406;SDS011;11876;53.438;18.942;2022-09-03T12:49:15;4.47;;;0.77;;
23406;SDS011;11876;53.438;18.942;2022-09-03T12:54:35;0.32;;;0.17;;
23406;SDS011;11876;53.438;18.942;2022-09-03T12:59:45;0.52;;;0.40;;
23406;SDS011;11876;53.438;18.942;2022-09-03T13:04:49;9.63;;;0.60;;
23406;SDS011;11876;53.438;18.942;2022-09-03T13:09:55;1.30;;;0.60;;
23406;SDS011;11876;53.438;18.942;2022-09-03T13:15:05;22.05;;;1.42;;
23406;SDS011;11876;53.438;18.942;2022-09-03T13:20:20;1.27;;;0.70;;
23406;SDS011;11876;53.438;18.942;2022-09-03T13:25:48;5.32;;;0.60;;
23406;SDS011;11876;53.438;18.942;2022-09-03T13:41:55;0.50;;;0.40;;
23406;SDS011;11876;53.438;18.942;2022-09-03T14:03:42;2.50;;;0.50;;
23406;SDS011;11876;53.438;18.942;2022-09-03T14:08:58;0.40;;;0.40;;
23406;SDS011;11876;53.438;18.942;2022-09-03T14:14:27;0.55;;;0.50;;
23406;SDS011;11876;53.438;18.942;2022-09-03T14:24:57;2.35;;;0.80;;
23406;SDS011;11876;53.438;18.942;2022-09-03T14:40:51;1.65;;;0.60;;
23406;SDS011;11876;53.438;18.942;2022-09-03T14:56:49;1.40;;;0.60;;
23406;SDS011;11876;53.438;18.942;2022-09-03T15:12:39;0.55;;;0.28;;
23406;SDS011;11876;53.438;18.942;2022-09-03T15:28:18;0.63;;;0.63;;
23406;SDS011;11876;53.438;18.942;2022-09-03T15:39:55;4.88;;;0.73;;
23406;SDS011;11876;53.438;18.942;2022-09-03T15:44:35;2.35;;;1.30;;
23406;SDS011;11876;53.438;18.942;2022-09-03T15:55:11;4.03;;;1.25;;
23406;SDS011;11876;53.438;18.942;2022-09-03T16:00:17;1.10;;;0.80;;
23406;SDS011;11876;53.438;18.942;2022-09-03T16:05:27;7.53;;;2.30;;
23406;SDS011;11876;53.438;18.942;2022-09-03T16:16:21;6.60;;;3.22;;
23406;SDS011;11876;53.438;18.942;2022-09-03T16:26:50;2.08;;;0.80;;
23406;SDS011;11876;53.438;18.942;2022-09-03T16:43:40;20.13;;;3.13;;
23406;SDS011;11876;53.438;18.942;2022-09-03T17:32:14;6.22;;;4.75;;
23406;SDS011;11876;53.438;18.942;2022-09-03T17:42:45;6.30;;;4.90;;
23406;SDS011;11876;53.438;18.942;2022-09-03T17:47:54;6.90;;;3.47;;
23406;SDS011;11876;53.438;18.942;2022-09-03T17:53:11;8.13;;;5.93;;
23406;SDS011;11876;53.438;18.942;2022-09-03T17:58:33;8.52;;;5.35;;
23406;SDS011;11876;53.438;18.942;2022-09-03T18:03:53;7.72;;;5.70;;
23406;SDS011;11876;53.438;18.942;2022-09-03T18:09:11;9.35;;;5.88;;
23406;SDS011;11876;53.438;18.942;2022-09-03T18:14:32;5.35;;;3.10;;
23406;SDS011;11876;53.438;18.942;2022-09-03T18:19:43;5.60;;;2.33;;
23406;SDS011;11876;53.438;18.942;2022-09-03T18:25:08;5.50;;;2.80;;
23406;SDS011;11876;53.438;18.942;2022-09-03T18:30:33;4.18;;;2.72;;
23406;SDS011;11876;53.438;18.942;2022-09-03T18:35:55;7.03;;;3.80;;
23406;SDS011;11876;53.438;18.942;2022-09-03T18:53:09;7.22;;;3.22;;
23406;SDS011;11876;53.438;18.942;2022-09-03T19:09:44;2.28;;;1.50;;
23406;SDS011;11876;53.438;18.942;2022-09-03T19:21:30;7.97;;;3.92;;
23406;SDS011;11876;53.438;18.942;2022-09-03T19:26:39;9.02;;;3.72;;
23406;SDS011;11876;53.438;18.942;2022-09-03T19:32:29;8.43;;;3.60;;
23406;SDS011;11876;53.438;18.942;2022-09-03T19:38:21;4.80;;;2.65;;
23406;SDS011;11876;53.438;18.942;2022-09-03T19:55:01;4.38;;;1.60;;
23406;SDS011;11876;53.438;18.942;2022-09-03T20:00:24;4.38;;;1.45;;
23406;SDS011;11876;53.438;18.942;2022-09-03T20:05:45;3.88;;;1.90;;
23406;SDS011;11876;53.438;18.942;2022-09-03T20:11:16;4.20;;;1.80;;
23406;SDS011;11876;53.438;18.942;2022-09-03T20:16:37;2.88;;;1.73;;
23406;SDS011;11876;53.438;18.942;2022-09-03T20:21:57;1.75;;;1.50;;
23406;SDS011;11876;53.438;18.942;2022-09-03T20:27:10;3.67;;;1.98;;
23406;SDS011;11876;53.438;18.942;2022-09-03T20:37:27;4.68;;;2.17;;
23406;SDS011;11876;53.438;18.942;2022-09-03T20:53:52;2.30;;;1.70;;
23406;SDS011;11876;53.438;18.942;2022-09-03T20:58:48;2.53;;;1.90;;
23406;SDS011;11876;53.438;18.942;2022-09-03T21:14:55;3.97;;;2.03;;
23406;SDS011;11876;53.438;18.942;2022-09-03T21:31:23;2.35;;;2.00;;
23406;SDS011;11876;53.438;18.942;2022-09-03T21:36:33;2.15;;;1.85;;
23406;SDS011;11876;53.438;18.942;2022-09-03T21:41:46;2.28;;;1.83;;
23406;SDS011;11876;53.438;18.942;2022-09-03T21:46:58;6.00;;;1.95;;
23406;SDS011;11876;53.438;18.942;2022-09-03T21:52:05;2.45;;;1.55;;
23406;SDS011;11876;53.438;18.942;2022-09-03T22:03:00;4.97;;;2.13;;
23406;SDS011;11876;53.438;18.942;2022-09-03T22:08:26;3.65;;;1.90;;
23406;SDS011;11876;53.438;18.942;2022-09-03T22:13:49;3.97;;;1.75;;
23406;SDS011;11876;53.438;18.942;2022-09-03T22:18:59;3.40;;;1.90;;
23406;SDS011;11876;53.438;18.942;2022-09-03T22:24:10;2.33;;;1.90;;
23406;SDS011;11876;53.438;18.942;2022-09-03T22:29:58;3.83;;;1.90;;
23406;SDS011;11876;53.438;18.942;2022-09-03T22:46:22;2.38;;;1.90;;
23406;SDS011;11876;53.438;18.942;2022-09-03T22:51:10;3.08;;;1.85;;
23406;SDS011;11876;53.438;18.942;2022-09-03T22:56:14;3.17;;;2.50;;
23406;SDS011;11876;53.438;18.942;2022-09-03T23:06:45;3.08;;;2.00;;
23406;SDS011;11876;53.438;18.942;2022-09-03T23:11:52;2.65;;;2.15;;
23406;SDS011;11876;53.438;18.942;2022-09-03T23:16:59;3.00;;;2.17;;
23406;SDS011;11876;53.438;18.942;2022-09-03T23:32:20;2.13;;;1.92;;
23406;SDS011;11876;53.438;18.942;2022-09-03T23:53:26;4.40;;;2.05;;
23406;SDS011;11876;53.438;18.942;2022-09-03T23:58:47;3.97;;;2.20;;
